sensor_id;sensor_type;location;lat;lon;timestamp;temperature;humidity
14014;DHT22;49110;52.584;13.408;2023-11-21T00:00:25;9.50;99.90
14014;DHT22;49110;52.584;13.408;2023-11-21T00:01:26;9.50;99.90
14014;DHT22;49110;52.584;13.408;2023-11-21T00:02:26;9.50;99.90
14014;DHT22;49110;52.584;13.408;2023-11-21T00:03:28;9.60;99.90
14014;DHT22;49110;52.584;13.408;2023-11-21T00:04:29;9.50;99.90
14014;DHT22;49110;52.584;13.408;2023-11-21T00:05:29;9.50;99.90
14014;DHT22;49110;52.584;13.408;2023-11-21T00:06:30;9.40;99.90
14014;DHT22;49110;52.584;13.408;2023-11-21T00:07:30;9.40;99.90
14014;DHT22;49110;52.584;13.408;2023-11-21T00:08:31;9.40;99.90
14014;DHT22;49110;52.584;13.408;2023-11-21T00:09:32;9.40;99.90
14014;DHT22;49110;52.584;13.408;2023-11-21T00:10:34;9.30;99.90
14014;DHT22;49110;52.584;13.408;2023-11-21T00:11:35;9.40;99.90
14014;DHT22;49110;52.584;13.408;2023-11-21T00:12:36;9.40;99.90
14014;DHT22;49110;52.584;13.408;2023-11-21T00:13:37;9.40;99.90
14014;DHT22;49110;52.584;13.408;2023-11-21T00:14:38;9.30;99.90
14014;DHT22;49110;52.584;13.408;2023-11-21T00:15:38;9.10;99.90
14014;DHT22;49110;52.584;13.408;2023-11-21T00:16:39;9.20;99.90
14014;DHT22;49110;52.584;13.408;2023-11-21T00:17:40;9.10;99.90
14014;DHT22;49110;52.584;13.408;2023-11-21T00:18:41;9.10;99.90
14014;DHT22;49110;52.584;13.408;2023-11-21T00:19:42;8.90;99.90
14014;DHT22;49110;52.584;13.408;2023-11-21T00:20:43;8.90;99.90
14014;DHT22;49110;52.584;13.408;2023-11-21T00:21:43;9.00;99.90
14014;DHT22;49110;52.584;13.408;2023-11-21T00:22:45;8.90;99.90
14014;DHT22;49110;52.584;13.408;2023-11-21T00:23:45;9.00;99.90
14014;DHT22;49110;52.584;13.408;2023-11-21T00:24:46;8.90;99.90
14014;DHT22;49110;52.584;13.408;2023-11-21T00:25:47;8.90;99.90
14014;DHT22;49110;52.584;13.408;2023-11-21T00:26:47;8.80;99.90
14014;DHT22;49110;52.584;13.408;2023-11-21T00:27:48;8.80;99.90
14014;DHT22;49110;52.584;13.408;2023-11-21T00:28:49;8.90;99.90
14014;DHT22;49110;52.584;13.408;2023-11-21T00:29:50;8.90;99.90
14014;DHT22;49110;52.584;13.408;2023-11-21T00:30:51;8.80;99.90
14014;DHT22;49110;52.584;13.408;2023-11-21T00:31:51;8.80;99.90
14014;DHT22;49110;52.584;13.408;2023-11-21T00:32:52;8.80;99.90
14014;DHT22;49110;52.584;13.408;2023-11-21T00:33:52;8.80;99.90
14014;DHT22;49110;52.584;13.408;2023-11-21T00:34:55;8.90;99.90
14014;DHT22;49110;52.584;13.408;2023-11-21T00:35:55;8.90;99.90
14014;DHT22;49110;52.584;13.408;2023-11-21T00:36:56;8.90;99.90
14014;DHT22;49110;52.584;13.408;2023-11-21T00:37:56;8.80;99.90
14014;DHT22;49110;52.584;13.408;2023-11-21T00:38:58;8.60;99.90
14014;DHT22;49110;52.584;13.408;2023-11-21T00:39:59;8.60;99.90
14014;DHT22;49110;52.584;13.408;2023-11-21T00:40:59;8.50;99.90
14014;DHT22;49110;52.584;13.408;2023-11-21T00:42:00;8.50;99.90
14014;DHT22;49110;52.584;13.408;2023-11-21T00:43:01;8.50;99.90
14014;DHT22;49110;52.584;13.408;2023-11-21T00:44:01;8.40;99.90
14014;DHT22;49110;52.584;13.408;2023-11-21T00:45:01;8.40;99.90
14014;DHT22;49110;52.584;13.408;2023-11-21T00:46:05;8.40;99.90
14014;DHT22;49110;52.584;13.408;2023-11-21T00:47:07;8.40;99.90
14014;DHT22;49110;52.584;13.408;2023-11-21T00:48:08;8.30;99.90
14014;DHT22;49110;52.584;13.408;2023-11-21T00:49:08;8.40;99.90
14014;DHT22;49110;52.584;13.408;2023-11-21T00:50:09;8.30;99.90
14014;DHT22;49110;52.584;13.408;2023-11-21T00:51:10;8.20;99.90
14014;DHT22;49110;52.584;13.408;2023-11-21T00:52:10;8.10;99.90
14014;DHT22;49110;52.584;13.408;2023-11-21T00:53:11;8.00;99.90
14014;DHT22;49110;52.584;13.408;2023-11-21T00:54:11;8.00;99.90
14014;DHT22;49110;52.584;13.408;2023-11-21T00:55:12;7.90;99.90
14014;DHT22;49110;52.584;13.408;2023-11-21T00:56:13;8.00;99.90
14014;DHT22;49110;52.584;13.408;2023-11-21T00:57:14;8.10;99.90
14014;DHT22;49110;52.584;13.408;2023-11-21T00:58:14;8.10;99.90
14014;DHT22;49110;52.584;13.408;2023-11-21T00:59:15;8.10;99.90
14014;DHT22;49110;52.584;13.408;2023-11-21T01:00:16;8.10;99.90
14014;DHT22;49110;52.584;13.408;2023-11-21T01:01:21;8.10;99.90
14014;DHT22;49110;52.584;13.408;2023-11-21T01:02:24;8.10;99.90
14014;DHT22;49110;52.584;13.408;2023-11-21T01:03:26;8.10;99.90
14014;DHT22;49110;52.584;13.408;2023-11-21T01:04:26;8.20;99.90
14014;DHT22;49110;52.584;13.408;2023-11-21T01:05:26;8.20;99.90
14014;DHT22;49110;52.584;13.408;2023-11-21T01:06:27;8.10;99.90
14014;DHT22;49110;52.584;13.408;2023-11-21T01:07:27;8.20;99.90
14014;DHT22;49110;52.584;13.408;2023-11-21T01:08:28;8.20;99.90
14014;DHT22;49110;52.584;13.408;2023-11-21T01:09:29;8.20;99.90
14014;DHT22;49110;52.584;13.408;2023-11-21T01:10:30;8.20;99.90
14014;DHT22;49110;52.584;13.408;2023-11-21T01:11:30;8.30;99.90
14014;DHT22;49110;52.584;13.408;2023-11-21T01:12:31;8.50;99.90
14014;DHT22;49110;52.584;13.408;2023-11-21T01:13:31;8.40;99.90
14014;DHT22;49110;52.584;13.408;2023-11-21T01:14:32;8.40;99.90
14014;DHT22;49110;52.584;13.408;2023-11-21T01:15:33;8.30;99.90
14014;DHT22;49110;52.584;13.408;2023-11-21T01:16:34;8.30;99.90
14014;DHT22;49110;52.584;13.408;2023-11-21T01:17:35;8.40;99.90
14014;DHT22;49110;52.584;13.408;2023-11-21T01:18:36;8.40;99.90
14014;DHT22;49110;52.584;13.408;2023-11-21T01:19:36;8.50;99.90
14014;DHT22;49110;52.584;13.408;2023-11-21T01:20:37;8.30;99.90
14014;DHT22;49110;52.584;13.408;2023-11-21T01:21:38;8.20;99.90
14014;DHT22;49110;52.584;13.408;2023-11-21T01:22:39;8.10;99.90
14014;DHT22;49110;52.584;13.408;2023-11-21T01:23:39;8.10;99.90
14014;DHT22;49110;52.584;13.408;2023-11-21T01:24:40;8.20;99.90
14014;DHT22;49110;52.584;13.408;2023-11-21T01:25:40;8.20;99.90
14014;DHT22;49110;52.584;13.408;2023-11-21T01:26:41;8.10;99.90
14014;DHT22;49110;52.584;13.408;2023-11-21T01:27:42;8.10;99.90
14014;DHT22;49110;52.584;13.408;2023-11-21T01:28:43;8.10;99.90
14014;DHT22;49110;52.584;13.408;2023-11-21T01:29:43;8.20;99.90
14014;DHT22;49110;52.584;13.408;2023-11-21T01:30:44;8.20;99.90
14014;DHT22;49110;52.584;13.408;2023-11-21T01:31:44;8.30;99.90
14014;DHT22;49110;52.584;13.408;2023-11-21T01:32:45;8.40;99.90
14014;DHT22;49110;52.584;13.408;2023-11-21T01:33:45;8.50;99.90
14014;DHT22;49110;52.584;13.408;2023-11-21T01:34:47;8.50;99.90
14014;DHT22;49110;52.584;13.408;2023-11-21T01:35:47;8.50;99.90
14014;DHT22;49110;52.584;13.408;2023-11-21T01:36:48;8.40;99.90
14014;DHT22;49110;52.584;13.408;2023-11-21T01:37:48;8.40;99.90
14014;DHT22;49110;52.584;13.408;2023-11-21T01:38:49;8.30;99.90
14014;DHT22;49110;52.584;13.408;2023-11-21T01:39:49;8.20;99.90
14014;DHT22;49110;52.584;13.408;2023-11-21T01:40:49;8.10;99.90
14014;DHT22;49110;52.584;13.408;2023-11-21T01:41:50;8.00;99.90
14014;DHT22;49110;52.584;13.408;2023-11-21T01:42:53;7.90;99.90
14014;DHT22;49110;52.584;13.408;2023-11-21T01:43:54;7.80;99.90
14014;DHT22;49110;52.584;13.408;2023-11-21T01:44:54;7.90;99.90
14014;DHT22;49110;52.584;13.408;2023-11-21T01:45:55;7.80;99.90
14014;DHT22;49110;52.584;13.408;2023-11-21T01:46:57;7.80;99.90
14014;DHT22;49110;52.584;13.408;2023-11-21T01:47:58;7.80;99.90
14014;DHT22;49110;52.584;13.408;2023-11-21T01:48:59;7.80;99.90
14014;DHT22;49110;52.584;13.408;2023-11-21T01:50:00;7.80;99.90
14014;DHT22;49110;52.584;13.408;2023-11-21T01:51:02;7.80;99.90
14014;DHT22;49110;52.584;13.408;2023-11-21T01:52:03;7.70;99.90
14014;DHT22;49110;52.584;13.408;2023-11-21T01:53:05;7.80;99.90
14014;DHT22;49110;52.584;13.408;2023-11-21T01:54:07;7.80;99.90
14014;DHT22;49110;52.584;13.408;2023-11-21T01:55:08;7.80;99.90
14014;DHT22;49110;52.584;13.408;2023-11-21T01:56:12;7.90;99.90
14014;DHT22;49110;52.584;13.408;2023-11-21T01:57:13;7.90;99.90
14014;DHT22;49110;52.584;13.408;2023-11-21T01:58:16;7.90;99.90
14014;DHT22;49110;52.584;13.408;2023-11-21T01:59:20;7.90;99.90
14014;DHT22;49110;52.584;13.408;2023-11-21T02:00:24;8.10;99.90
14014;DHT22;49110;52.584;13.408;2023-11-21T02:01:24;8.10;99.90
14014;DHT22;49110;52.584;13.408;2023-11-21T02:02:26;8.10;99.90
14014;DHT22;49110;52.584;13.408;2023-11-21T02:03:26;8.20;99.90
14014;DHT22;49110;52.584;13.408;2023-11-21T02:04:27;8.20;99.90
14014;DHT22;49110;52.584;13.408;2023-11-21T02:05:27;8.30;99.90
14014;DHT22;49110;52.584;13.408;2023-11-21T02:06:29;8.40;99.90
14014;DHT22;49110;52.584;13.408;2023-11-21T02:07:31;8.50;99.90
14014;DHT22;49110;52.584;13.408;2023-11-21T02:08:32;8.50;99.90
14014;DHT22;49110;52.584;13.408;2023-11-21T02:09:33;8.30;99.90
14014;DHT22;49110;52.584;13.408;2023-11-21T02:10:34;8.20;99.90
14014;DHT22;49110;52.584;13.408;2023-11-21T02:11:37;8.20;99.90
14014;DHT22;49110;52.584;13.408;2023-11-21T02:12:39;8.20;99.90
14014;DHT22;49110;52.584;13.408;2023-11-21T02:13:39;8.00;99.90
14014;DHT22;49110;52.584;13.408;2023-11-21T02:14:43;7.90;99.90
14014;DHT22;49110;52.584;13.408;2023-11-21T02:15:45;7.90;99.90
14014;DHT22;49110;52.584;13.408;2023-11-21T02:16:45;7.90;99.90
14014;DHT22;49110;52.584;13.408;2023-11-21T02:17:48;7.90;99.90
14014;DHT22;49110;52.584;13.408;2023-11-21T02:18:52;7.90;99.90
14014;DHT22;49110;52.584;13.408;2023-11-21T02:19:52;7.90;99.90
14014;DHT22;49110;52.584;13.408;2023-11-21T02:20:53;7.70;99.90
14014;DHT22;49110;52.584;13.408;2023-11-21T02:21:53;7.70;99.90
14014;DHT22;49110;52.584;13.408;2023-11-21T02:22:56;7.60;99.90
14014;DHT22;49110;52.584;13.408;2023-11-21T02:24:00;7.50;99.90
14014;DHT22;49110;52.584;13.408;2023-11-21T02:25:00;7.50;99.90
14014;DHT22;49110;52.584;13.408;2023-11-21T02:26:01;7.50;99.90
14014;DHT22;49110;52.584;13.408;2023-11-21T02:27:04;7.50;99.90
14014;DHT22;49110;52.584;13.408;2023-11-21T02:28:06;7.50;99.90
14014;DHT22;49110;52.584;13.408;2023-11-21T02:29:07;7.50;99.90
14014;DHT22;49110;52.584;13.408;2023-11-21T02:30:11;7.50;99.90
14014;DHT22;49110;52.584;13.408;2023-11-21T02:31:13;7.60;99.90
14014;DHT22;49110;52.584;13.408;2023-11-21T02:32:14;7.50;99.90
14014;DHT22;49110;52.584;13.408;2023-11-21T02:33:14;7.40;99.90
14014;DHT22;49110;52.584;13.408;2023-11-21T02:34:16;7.50;99.90
14014;DHT22;49110;52.584;13.408;2023-11-21T02:35:16;7.40;99.90
14014;DHT22;49110;52.584;13.408;2023-11-21T02:36:17;7.40;99.90
14014;DHT22;49110;52.584;13.408;2023-11-21T02:37:17;7.40;99.90
14014;DHT22;49110;52.584;13.408;2023-11-21T02:38:18;7.50;99.90
14014;DHT22;49110;52.584;13.408;2023-11-21T02:39:18;7.60;99.90
14014;DHT22;49110;52.584;13.408;2023-11-21T02:40:22;7.70;99.90
14014;DHT22;49110;52.584;13.408;2023-11-21T02:41:24;7.60;99.90
14014;DHT22;49110;52.584;13.408;2023-11-21T02:42:26;7.50;99.90
14014;DHT22;49110;52.584;13.408;2023-11-21T02:43:26;7.40;99.90
14014;DHT22;49110;52.584;13.408;2023-11-21T02:44:27;7.20;99.90
14014;DHT22;49110;52.584;13.408;2023-11-21T02:45:27;7.30;99.90
14014;DHT22;49110;52.584;13.408;2023-11-21T02:46:28;7.30;99.90
14014;DHT22;49110;52.584;13.408;2023-11-21T02:47:28;7.30;99.90
14014;DHT22;49110;52.584;13.408;2023-11-21T02:48:29;7.30;99.90
14014;DHT22;49110;52.584;13.408;2023-11-21T02:49:31;7.40;99.90
14014;DHT22;49110;52.584;13.408;2023-11-21T02:50:32;7.40;99.90
14014;DHT22;49110;52.584;13.408;2023-11-21T02:51:33;7.40;99.90
14014;DHT22;49110;52.584;13.408;2023-11-21T02:52:34;7.40;99.90
14014;DHT22;49110;52.584;13.408;2023-11-21T02:53:35;7.30;99.90
14014;DHT22;49110;52.584;13.408;2023-11-21T02:54:35;7.20;99.90
14014;DHT22;49110;52.584;13.408;2023-11-21T02:55:36;7.20;99.90
14014;DHT22;49110;52.584;13.408;2023-11-21T02:56:37;7.30;99.90
14014;DHT22;49110;52.584;13.408;2023-11-21T02:57:37;7.30;99.90
14014;DHT22;49110;52.584;13.408;2023-11-21T02:58:41;7.30;99.90
14014;DHT22;49110;52.584;13.408;2023-11-21T02:59:42;7.20;99.90
14014;DHT22;49110;52.584;13.408;2023-11-21T03:00:42;7.20;99.90
14014;DHT22;49110;52.584;13.408;2023-11-21T03:01:42;7.20;99.90
14014;DHT22;49110;52.584;13.408;2023-11-21T03:02:43;7.10;99.90
14014;DHT22;49110;52.584;13.408;2023-11-21T03:03:44;7.10;99.90
14014;DHT22;49110;52.584;13.408;2023-11-21T03:04:44;7.10;99.90
14014;DHT22;49110;52.584;13.408;2023-11-21T03:05:45;7.00;99.90
14014;DHT22;49110;52.584;13.408;2023-11-21T03:06:45;7.10;99.90
14014;DHT22;49110;52.584;13.408;2023-11-21T03:07:46;7.20;99.90
14014;DHT22;49110;52.584;13.408;2023-11-21T03:08:47;7.30;99.90
14014;DHT22;49110;52.584;13.408;2023-11-21T03:09:47;7.50;99.90
14014;DHT22;49110;52.584;13.408;2023-11-21T03:10:48;7.50;99.90
14014;DHT22;49110;52.584;13.408;2023-11-21T03:11:48;7.50;99.90
14014;DHT22;49110;52.584;13.408;2023-11-21T03:12:49;7.50;99.90
14014;DHT22;49110;52.584;13.408;2023-11-21T03:13:49;7.50;99.90
14014;DHT22;49110;52.584;13.408;2023-11-21T03:14:50;7.60;99.90
14014;DHT22;49110;52.584;13.408;2023-11-21T03:15:50;7.70;99.90
14014;DHT22;49110;52.584;13.408;2023-11-21T03:16:51;7.70;99.90
14014;DHT22;49110;52.584;13.408;2023-11-21T03:17:51;7.70;99.90
14014;DHT22;49110;52.584;13.408;2023-11-21T03:18:52;7.60;99.90
14014;DHT22;49110;52.584;13.408;2023-11-21T03:19:53;7.70;99.90
14014;DHT22;49110;52.584;13.408;2023-11-21T03:20:54;7.80;99.90
14014;DHT22;49110;52.584;13.408;2023-11-21T03:21:55;7.90;99.90
14014;DHT22;49110;52.584;13.408;2023-11-21T03:22:55;7.80;99.90
14014;DHT22;49110;52.584;13.408;2023-11-21T03:23:56;7.70;99.90
14014;DHT22;49110;52.584;13.408;2023-11-21T03:24:56;7.60;99.90
14014;DHT22;49110;52.584;13.408;2023-11-21T03:25:57;7.60;99.90
14014;DHT22;49110;52.584;13.408;2023-11-21T03:27:00;7.40;99.90
14014;DHT22;49110;52.584;13.408;2023-11-21T03:28:00;7.20;99.90
14014;DHT22;49110;52.584;13.408;2023-11-21T03:29:01;7.00;99.90
14014;DHT22;49110;52.584;13.408;2023-11-21T03:30:01;7.10;99.90
14014;DHT22;49110;52.584;13.408;2023-11-21T03:31:04;7.10;99.90
14014;DHT22;49110;52.584;13.408;2023-11-21T03:32:07;7.20;99.90
14014;DHT22;49110;52.584;13.408;2023-11-21T03:33:07;7.20;99.90
14014;DHT22;49110;52.584;13.408;2023-11-21T03:34:14;7.20;99.90
14014;DHT22;49110;52.584;13.408;2023-11-21T03:35:15;7.10;99.90
14014;DHT22;49110;52.584;13.408;2023-11-21T03:36:16;7.10;99.90
14014;DHT22;49110;52.584;13.408;2023-11-21T03:37:18;7.10;99.90
14014;DHT22;49110;52.584;13.408;2023-11-21T03:38:21;7.10;99.90
14014;DHT22;49110;52.584;13.408;2023-11-21T03:39:22;7.20;99.90
14014;DHT22;49110;52.584;13.408;2023-11-21T03:40:22;7.30;99.90
14014;DHT22;49110;52.584;13.408;2023-11-21T03:41:23;7.20;99.90
14014;DHT22;49110;52.584;13.408;2023-11-21T03:42:23;7.20;99.90
14014;DHT22;49110;52.584;13.408;2023-11-21T03:43:26;7.20;99.90
14014;DHT22;49110;52.584;13.408;2023-11-21T03:44:27;7.30;99.90
14014;DHT22;49110;52.584;13.408;2023-11-21T03:45:27;7.40;99.90
14014;DHT22;49110;52.584;13.408;2023-11-21T03:46:28;7.50;99.90
14014;DHT22;49110;52.584;13.408;2023-11-21T03:47:28;7.50;99.90
14014;DHT22;49110;52.584;13.408;2023-11-21T03:48:29;7.60;99.90
14014;DHT22;49110;52.584;13.408;2023-11-21T03:49:30;7.60;99.90
14014;DHT22;49110;52.584;13.408;2023-11-21T03:50:31;7.60;99.90
14014;DHT22;49110;52.584;13.408;2023-11-21T03:51:31;7.60;99.90
14014;DHT22;49110;52.584;13.408;2023-11-21T03:52:32;7.60;99.90
14014;DHT22;49110;52.584;13.408;2023-11-21T03:53:32;7.50;99.90
14014;DHT22;49110;52.584;13.408;2023-11-21T03:54:33;7.30;99.90
14014;DHT22;49110;52.584;13.408;2023-11-21T03:55:34;7.10;99.90
14014;DHT22;49110;52.584;13.408;2023-11-21T03:56:35;7.00;99.90
14014;DHT22;49110;52.584;13.408;2023-11-21T03:57:35;7.10;99.90
14014;DHT22;49110;52.584;13.408;2023-11-21T03:58:36;7.20;99.90
14014;DHT22;49110;52.584;13.408;2023-11-21T03:59:36;7.30;99.90
14014;DHT22;49110;52.584;13.408;2023-11-21T04:00:39;7.40;99.90
14014;DHT22;49110;52.584;13.408;2023-11-21T04:01:40;7.50;99.90
14014;DHT22;49110;52.584;13.408;2023-11-21T04:02:40;7.50;99.90
14014;DHT22;49110;52.584;13.408;2023-11-21T04:03:41;7.40;99.90
14014;DHT22;49110;52.584;13.408;2023-11-21T04:04:41;7.40;99.90
14014;DHT22;49110;52.584;13.408;2023-11-21T04:05:42;7.30;99.90
14014;DHT22;49110;52.584;13.408;2023-11-21T04:06:42;7.40;99.90
14014;DHT22;49110;52.584;13.408;2023-11-21T04:07:43;7.50;99.90
14014;DHT22;49110;52.584;13.408;2023-11-21T04:08:46;7.60;99.90
14014;DHT22;49110;52.584;13.408;2023-11-21T04:09:47;7.80;99.90
14014;DHT22;49110;52.584;13.408;2023-11-21T04:10:47;7.90;99.90
14014;DHT22;49110;52.584;13.408;2023-11-21T04:11:48;8.00;99.90
14014;DHT22;49110;52.584;13.408;2023-11-21T04:12:49;8.00;99.90
14014;DHT22;49110;52.584;13.408;2023-11-21T04:13:49;7.90;99.90
14014;DHT22;49110;52.584;13.408;2023-11-21T04:14:50;7.80;99.90
14014;DHT22;49110;52.584;13.408;2023-11-21T04:15:50;7.80;99.90
14014;DHT22;49110;52.584;13.408;2023-11-21T04:16:51;7.70;99.90
14014;DHT22;49110;52.584;13.408;2023-11-21T04:17:51;7.70;99.90
14014;DHT22;49110;52.584;13.408;2023-11-21T04:18:52;7.80;99.90
14014;DHT22;49110;52.584;13.408;2023-11-21T04:19:52;7.70;99.90
14014;DHT22;49110;52.584;13.408;2023-11-21T04:20:53;7.60;99.90
14014;DHT22;49110;52.584;13.408;2023-11-21T04:21:53;7.60;99.90
14014;DHT22;49110;52.584;13.408;2023-11-21T04:22:54;7.60;99.90
14014;DHT22;49110;52.584;13.408;2023-11-21T04:23:54;7.50;99.90
14014;DHT22;49110;52.584;13.408;2023-11-21T04:24:55;7.40;99.90
14014;DHT22;49110;52.584;13.408;2023-11-21T04:25:56;7.40;99.90
14014;DHT22;49110;52.584;13.408;2023-11-21T04:26:57;7.50;99.90
14014;DHT22;49110;52.584;13.408;2023-11-21T04:27:57;7.50;99.90
14014;DHT22;49110;52.584;13.408;2023-11-21T04:28:58;7.60;99.90
14014;DHT22;49110;52.584;13.408;2023-11-21T04:29:59;7.60;99.90
14014;DHT22;49110;52.584;13.408;2023-11-21T04:30:59;7.50;99.90
14014;DHT22;49110;52.584;13.408;2023-11-21T04:32:01;7.60;99.90
14014;DHT22;49110;52.584;13.408;2023-11-21T04:33:02;7.60;99.90
14014;DHT22;49110;52.584;13.408;2023-11-21T04:34:03;7.60;99.90
14014;DHT22;49110;52.584;13.408;2023-11-21T04:35:04;7.60;99.90
14014;DHT22;49110;52.584;13.408;2023-11-21T04:36:05;7.60;99.90
14014;DHT22;49110;52.584;13.408;2023-11-21T04:37:06;7.60;99.90
14014;DHT22;49110;52.584;13.408;2023-11-21T04:38:06;7.60;99.90
14014;DHT22;49110;52.584;13.408;2023-11-21T04:39:08;7.70;99.90
14014;DHT22;49110;52.584;13.408;2023-11-21T04:40:09;7.60;99.90
14014;DHT22;49110;52.584;13.408;2023-11-21T04:41:10;7.60;99.90
14014;DHT22;49110;52.584;13.408;2023-11-21T04:42:12;7.60;99.90
14014;DHT22;49110;52.584;13.408;2023-11-21T04:43:13;7.70;99.90
14014;DHT22;49110;52.584;13.408;2023-11-21T04:44:13;7.70;99.90
14014;DHT22;49110;52.584;13.408;2023-11-21T04:45:14;7.80;99.90
14014;DHT22;49110;52.584;13.408;2023-11-21T04:46:14;7.80;99.90
14014;DHT22;49110;52.584;13.408;2023-11-21T04:47:15;7.80;99.90
14014;DHT22;49110;52.584;13.408;2023-11-21T04:48:16;7.90;99.90
14014;DHT22;49110;52.584;13.408;2023-11-21T04:49:16;7.90;99.90
14014;DHT22;49110;52.584;13.408;2023-11-21T04:50:17;7.90;99.90
14014;DHT22;49110;52.584;13.408;2023-11-21T04:51:17;7.80;99.90
14014;DHT22;49110;52.584;13.408;2023-11-21T04:52:18;7.80;99.90
14014;DHT22;49110;52.584;13.408;2023-11-21T04:53:20;7.70;99.90
14014;DHT22;49110;52.584;13.408;2023-11-21T04:54:20;7.80;99.90
14014;DHT22;49110;52.584;13.408;2023-11-21T04:55:21;7.60;99.90
14014;DHT22;49110;52.584;13.408;2023-11-21T04:56:22;7.60;99.90
14014;DHT22;49110;52.584;13.408;2023-11-21T04:57:22;7.60;99.90
14014;DHT22;49110;52.584;13.408;2023-11-21T04:58:23;7.60;99.90
14014;DHT22;49110;52.584;13.408;2023-11-21T04:59:23;7.70;99.90
14014;DHT22;49110;52.584;13.408;2023-11-21T05:00:27;7.70;99.90
14014;DHT22;49110;52.584;13.408;2023-11-21T05:01:27;7.70;99.90
14014;DHT22;49110;52.584;13.408;2023-11-21T05:02:28;7.90;99.90
14014;DHT22;49110;52.584;13.408;2023-11-21T05:03:28;7.90;99.90
14014;DHT22;49110;52.584;13.408;2023-11-21T05:04:30;7.90;99.90
14014;DHT22;49110;52.584;13.408;2023-11-21T05:05:30;8.00;99.90
14014;DHT22;49110;52.584;13.408;2023-11-21T05:06:31;7.90;99.90
14014;DHT22;49110;52.584;13.408;2023-11-21T05:07:33;7.90;99.90
14014;DHT22;49110;52.584;13.408;2023-11-21T05:08:35;7.70;99.90
14014;DHT22;49110;52.584;13.408;2023-11-21T05:09:41;7.70;99.90
14014;DHT22;49110;52.584;13.408;2023-11-21T05:10:41;7.60;99.90
14014;DHT22;49110;52.584;13.408;2023-11-21T05:11:42;7.30;99.90
14014;DHT22;49110;52.584;13.408;2023-11-21T05:12:42;7.30;99.90
14014;DHT22;49110;52.584;13.408;2023-11-21T05:13:43;7.40;99.90
14014;DHT22;49110;52.584;13.408;2023-11-21T05:14:43;7.30;99.90
14014;DHT22;49110;52.584;13.408;2023-11-21T05:15:44;7.30;99.90
14014;DHT22;49110;52.584;13.408;2023-11-21T05:16:45;7.20;99.90
14014;DHT22;49110;52.584;13.408;2023-11-21T05:17:46;7.20;99.90
14014;DHT22;49110;52.584;13.408;2023-11-21T05:18:47;7.20;99.90
14014;DHT22;49110;52.584;13.408;2023-11-21T05:19:47;7.20;99.90
14014;DHT22;49110;52.584;13.408;2023-11-21T05:20:48;7.20;99.90
14014;DHT22;49110;52.584;13.408;2023-11-21T05:21:50;7.30;99.90
14014;DHT22;49110;52.584;13.408;2023-11-21T05:22:50;7.20;99.90
14014;DHT22;49110;52.584;13.408;2023-11-21T05:23:51;7.30;99.90
14014;DHT22;49110;52.584;13.408;2023-11-21T05:24:51;7.10;99.90
14014;DHT22;49110;52.584;13.408;2023-11-21T05:25:52;7.10;99.90
14014;DHT22;49110;52.584;13.408;2023-11-21T05:26:52;7.20;99.90
14014;DHT22;49110;52.584;13.408;2023-11-21T05:27:53;7.30;99.90
14014;DHT22;49110;52.584;13.408;2023-11-21T05:28:54;7.30;99.90
14014;DHT22;49110;52.584;13.408;2023-11-21T05:29:55;7.50;99.90
14014;DHT22;49110;52.584;13.408;2023-11-21T05:30:55;7.60;99.90
14014;DHT22;49110;52.584;13.408;2023-11-21T05:31:56;7.50;99.90
14014;DHT22;49110;52.584;13.408;2023-11-21T05:32:57;7.40;99.90
14014;DHT22;49110;52.584;13.408;2023-11-21T05:33:57;7.40;99.90
14014;DHT22;49110;52.584;13.408;2023-11-21T05:34:58;7.40;99.90
14014;DHT22;49110;52.584;13.408;2023-11-21T05:35:59;7.30;99.90
14014;DHT22;49110;52.584;13.408;2023-11-21T05:36:59;7.30;99.90
14014;DHT22;49110;52.584;13.408;2023-11-21T05:37:59;7.40;99.90
14014;DHT22;49110;52.584;13.408;2023-11-21T05:39:00;7.30;99.90
14014;DHT22;49110;52.584;13.408;2023-11-21T05:40:00;7.30;99.90
14014;DHT22;49110;52.584;13.408;2023-11-21T05:41:06;7.40;99.90
14014;DHT22;49110;52.584;13.408;2023-11-21T05:42:06;7.40;99.90
14014;DHT22;49110;52.584;13.408;2023-11-21T05:43:09;7.40;99.90
14014;DHT22;49110;52.584;13.408;2023-11-21T05:44:09;7.40;99.90
14014;DHT22;49110;52.584;13.408;2023-11-21T05:45:10;7.30;99.90
14014;DHT22;49110;52.584;13.408;2023-11-21T05:46:11;7.30;99.90
14014;DHT22;49110;52.584;13.408;2023-11-21T05:47:11;7.20;99.90
14014;DHT22;49110;52.584;13.408;2023-11-21T05:48:13;7.20;99.90
14014;DHT22;49110;52.584;13.408;2023-11-21T05:49:14;7.20;99.90
14014;DHT22;49110;52.584;13.408;2023-11-21T05:50:16;7.20;99.90
14014;DHT22;49110;52.584;13.408;2023-11-21T05:51:17;7.10;99.90
14014;DHT22;49110;52.584;13.408;2023-11-21T05:52:18;7.10;99.90
14014;DHT22;49110;52.584;13.408;2023-11-21T05:53:18;7.20;99.90
14014;DHT22;49110;52.584;13.408;2023-11-21T05:54:19;7.20;99.90
14014;DHT22;49110;52.584;13.408;2023-11-21T05:55:22;7.10;99.90
14014;DHT22;49110;52.584;13.408;2023-11-21T05:56:25;7.10;99.90
14014;DHT22;49110;52.584;13.408;2023-11-21T05:57:26;7.10;99.90
14014;DHT22;49110;52.584;13.408;2023-11-21T05:58:26;7.00;99.90
14014;DHT22;49110;52.584;13.408;2023-11-21T05:59:27;7.00;99.90
14014;DHT22;49110;52.584;13.408;2023-11-21T06:00:27;7.00;99.90
14014;DHT22;49110;52.584;13.408;2023-11-21T06:01:28;7.00;99.90
14014;DHT22;49110;52.584;13.408;2023-11-21T06:02:28;7.10;99.90
14014;DHT22;49110;52.584;13.408;2023-11-21T06:03:29;7.10;99.90
14014;DHT22;49110;52.584;13.408;2023-11-21T06:04:30;7.00;99.90
14014;DHT22;49110;52.584;13.408;2023-11-21T06:05:31;7.10;99.90
14014;DHT22;49110;52.584;13.408;2023-11-21T06:06:32;7.00;99.90
14014;DHT22;49110;52.584;13.408;2023-11-21T06:07:33;6.90;99.90
14014;DHT22;49110;52.584;13.408;2023-11-21T06:08:33;6.90;99.90
14014;DHT22;49110;52.584;13.408;2023-11-21T06:09:34;7.10;99.90
14014;DHT22;49110;52.584;13.408;2023-11-21T06:10:35;7.00;99.90
14014;DHT22;49110;52.584;13.408;2023-11-21T06:11:35;7.00;99.90
14014;DHT22;49110;52.584;13.408;2023-11-21T06:12:36;7.00;99.90
14014;DHT22;49110;52.584;13.408;2023-11-21T06:13:37;6.90;99.90
14014;DHT22;49110;52.584;13.408;2023-11-21T06:14:38;6.90;99.90
14014;DHT22;49110;52.584;13.408;2023-11-21T06:15:38;7.00;99.90
14014;DHT22;49110;52.584;13.408;2023-11-21T06:16:39;6.90;99.90
14014;DHT22;49110;52.584;13.408;2023-11-21T06:17:41;7.00;99.90
14014;DHT22;49110;52.584;13.408;2023-11-21T06:18:42;7.00;99.90
14014;DHT22;49110;52.584;13.408;2023-11-21T06:19:43;7.20;99.90
14014;DHT22;49110;52.584;13.408;2023-11-21T06:20:46;7.10;99.90
14014;DHT22;49110;52.584;13.408;2023-11-21T06:21:47;7.10;99.90
14014;DHT22;49110;52.584;13.408;2023-11-21T06:22:50;7.10;99.90
14014;DHT22;49110;52.584;13.408;2023-11-21T06:23:51;7.00;99.90
14014;DHT22;49110;52.584;13.408;2023-11-21T06:24:53;7.10;99.90